createdAt,value
2022-11-30T00:01:16.909Z,8.30
2022-11-30T00:03:43.684Z,8.20
2022-11-30T00:06:13.715Z,8.20
2022-11-30T00:08:41.856Z,8.20
2022-11-30T00:11:14.665Z,8.20
2022-11-30T00:13:41.967Z,8.20
2022-11-30T00:16:08.778Z,8.30
2022-11-30T00:18:36.831Z,8.30
2022-11-30T00:21:12.893Z,8.30
2022-11-30T00:23:42.301Z,8.30
2022-11-30T00:26:16.304Z,8.30
2022-11-30T00:29:49.457Z,8.30
2022-11-30T00:32:16.239Z,8.30
2022-11-30T00:34:44.844Z,8.30
2022-11-30T00:37:14.776Z,8.30
2022-11-30T00:39:42.806Z,8.30
2022-11-30T00:42:12.531Z,8.30
2022-11-30T00:44:41.624Z,8.30
2022-11-30T00:47:08.517Z,8.30
2022-11-30T00:49:35.438Z,8.60
2022-11-30T00:52:02.446Z,8.30
2022-11-30T00:54:29.318Z,8.30
2022-11-30T00:56:56.024Z,8.20
2022-11-30T00:59:22.779Z,8.20
2022-11-30T01:01:49.506Z,8.30
2022-11-30T01:04:16.363Z,8.20
2022-11-30T01:06:43.543Z,8.30
2022-11-30T01:09:10.295Z,8.40
2022-11-30T01:11:37.094Z,8.20
2022-11-30T01:14:03.961Z,8.20
2022-11-30T01:16:33.429Z,8.20
2022-11-30T01:19:00.825Z,8.20
2022-11-30T01:21:28.657Z,8.20
2022-11-30T01:23:56.037Z,8.20
2022-11-30T01:26:23.914Z,8.10
2022-11-30T01:28:52.750Z,8.10
2022-11-30T01:31:20.633Z,8.10
2022-11-30T01:33:53.149Z,8.10
2022-11-30T01:36:28.398Z,8.00
2022-11-30T01:38:57.061Z,8.00
2022-11-30T01:41:30.097Z,7.90
2022-11-30T01:44:07.212Z,8.00
2022-11-30T01:46:39.944Z,7.90
2022-11-30T01:49:10.165Z,7.90
2022-11-30T01:51:48.676Z,7.90
2022-11-30T01:54:19.991Z,8.00
2022-11-30T01:56:51.769Z,8.00
2022-11-30T01:59:20.604Z,8.00
2022-11-30T02:01:47.600Z,7.90
2022-11-30T02:04:17.893Z,7.90
2022-11-30T02:06:45.448Z,8.00
2022-11-30T02:09:13.117Z,8.00
2022-11-30T02:11:40.303Z,8.00
2022-11-30T02:14:25.442Z,7.90
2022-11-30T02:17:22.381Z,7.90
2022-11-30T02:20:01.916Z,7.90
2022-11-30T02:23:01.001Z,7.90
2022-11-30T02:25:36.317Z,7.90
2022-11-30T02:28:35.924Z,7.80
2022-11-30T02:31:06.108Z,7.90
2022-11-30T02:33:33.899Z,7.80
2022-11-30T02:36:03.128Z,7.80
2022-11-30T02:38:30.189Z,7.80
2022-11-30T02:40:56.944Z,7.80
2022-11-30T02:43:26.462Z,7.80
2022-11-30T02:46:08.224Z,7.70
2022-11-30T02:48:46.309Z,7.80
2022-11-30T02:51:20.315Z,7.80
2022-11-30T02:53:47.972Z,7.80
2022-11-30T02:56:14.740Z,7.80
2022-11-30T02:58:41.630Z,7.80
2022-11-30T03:01:08.551Z,7.80
2022-11-30T03:03:35.437Z,7.90
2022-11-30T03:06:02.274Z,7.80
2022-11-30T03:08:29.150Z,7.80
2022-11-30T03:10:55.952Z,7.80
2022-11-30T03:13:22.854Z,7.80
2022-11-30T03:15:49.989Z,7.80
2022-11-30T03:18:16.784Z,7.80
2022-11-30T03:20:43.660Z,7.80
2022-11-30T03:23:10.589Z,7.70
2022-11-30T03:25:38.344Z,7.70
2022-11-30T03:28:05.107Z,7.70
2022-11-30T03:30:31.827Z,7.70
2022-11-30T03:32:58.580Z,7.60
2022-11-30T03:35:25.294Z,7.70
2022-11-30T03:37:52.025Z,7.80
2022-11-30T03:40:18.790Z,7.70
2022-11-30T03:42:45.525Z,7.70
2022-11-30T03:45:12.419Z,7.60
2022-11-30T03:47:39.092Z,7.60
2022-11-30T03:50:06.521Z,7.70
2022-11-30T03:52:33.297Z,7.70
2022-11-30T03:54:59.947Z,7.60
2022-11-30T03:57:26.679Z,7.60
2022-11-30T03:59:53.424Z,7.60
2022-11-30T04:02:20.137Z,7.60
2022-11-30T04:04:53.030Z,7.60
2022-11-30T04:07:19.853Z,7.60
2022-11-30T04:09:46.646Z,7.60
2022-11-30T04:12:13.424Z,7.60
2022-11-30T04:14:40.213Z,7.60
2022-11-30T04:17:07.759Z,7.70
2022-11-30T04:19:34.826Z,7.70
2022-11-30T04:22:01.606Z,7.90
2022-11-30T04:24:28.273Z,7.60
2022-11-30T04:26:54.903Z,7.70
2022-11-30T04:29:21.665Z,7.70
2022-11-30T04:31:48.448Z,7.70
2022-11-30T04:34:15.231Z,7.70
2022-11-30T04:36:42.053Z,7.70
2022-11-30T04:39:08.773Z,7.60
2022-11-30T04:41:35.457Z,7.70
2022-11-30T04:44:02.251Z,7.70
2022-11-30T04:46:29.562Z,7.60
2022-11-30T04:48:56.449Z,7.60
2022-11-30T04:51:23.292Z,7.60
2022-11-30T04:53:50.017Z,8.00
2022-11-30T04:56:16.846Z,7.60
2022-11-30T04:58:43.689Z,7.50
2022-11-30T05:01:10.449Z,7.60
2022-11-30T05:03:37.355Z,7.60
2022-11-30T05:06:04.123Z,7.60
2022-11-30T05:08:31.018Z,7.60
2022-11-30T05:10:57.834Z,7.60
2022-11-30T05:13:26.249Z,7.60
2022-11-30T05:15:56.112Z,7.60
2022-11-30T05:18:23.276Z,7.60
2022-11-30T05:20:52.711Z,7.60
2022-11-30T05:23:20.381Z,7.70
2022-11-30T05:25:47.650Z,7.60
2022-11-30T05:28:14.762Z,7.60
2022-11-30T05:30:42.696Z,7.50
2022-11-30T05:33:09.922Z,7.60
2022-11-30T05:35:36.999Z,7.60
2022-11-30T05:38:04.316Z,7.60
2022-11-30T05:40:32.575Z,7.60
2022-11-30T05:43:01.731Z,7.50
2022-11-30T05:45:28.898Z,7.50
2022-11-30T05:47:55.732Z,7.40
2022-11-30T05:50:22.752Z,7.40
2022-11-30T05:53:00.635Z,7.40
2022-11-30T05:55:29.455Z,7.30
2022-11-30T05:57:56.329Z,7.40
2022-11-30T06:00:23.058Z,7.40
2022-11-30T06:02:56.106Z,7.50
2022-11-30T06:05:22.908Z,7.50
2022-11-30T06:07:49.773Z,7.50
2022-11-30T06:10:16.774Z,7.50
2022-11-30T06:12:43.461Z,7.50
2022-11-30T06:15:10.702Z,7.60
2022-11-30T06:17:37.964Z,7.60
2022-11-30T06:20:08.102Z,7.60
2022-11-30T06:22:34.841Z,7.60
2022-11-30T06:25:01.659Z,7.60
2022-11-30T06:27:31.891Z,7.50
2022-11-30T06:29:58.638Z,7.60
2022-11-30T06:32:25.360Z,7.40
2022-11-30T06:34:52.413Z,7.40
2022-11-30T06:37:19.176Z,7.40
2022-11-30T06:42:33.355Z,7.30
2022-11-30T06:45:00.207Z,7.30
2022-11-30T06:47:28.324Z,7.30
2022-11-30T06:49:55.098Z,7.30
2022-11-30T06:52:22.189Z,7.30
2022-11-30T06:54:49.837Z,7.30
2022-11-30T06:57:17.524Z,7.40
2022-11-30T06:59:44.738Z,7.40
2022-11-30T07:02:18.285Z,7.50
2022-11-30T07:04:46.127Z,7.50
2022-11-30T07:07:13.267Z,7.50
2022-11-30T07:09:40.292Z,7.50
2022-11-30T07:12:07.305Z,7.50
2022-11-30T07:14:34.218Z,7.60
2022-11-30T07:17:04.504Z,7.50
2022-11-30T07:19:34.567Z,7.60
2022-11-30T07:22:02.119Z,7.60
2022-11-30T07:24:48.454Z,7.60
2022-11-30T07:27:15.319Z,7.60
2022-11-30T07:29:42.027Z,7.60
2022-11-30T07:32:08.805Z,7.50
2022-11-30T07:34:35.616Z,7.50
2022-11-30T07:37:02.380Z,7.50
2022-11-30T07:39:29.073Z,7.50
2022-11-30T07:41:55.788Z,7.50
2022-11-30T07:44:22.933Z,7.60
2022-11-30T07:46:49.677Z,7.60
2022-11-30T07:49:16.781Z,7.60
2022-11-30T07:51:43.547Z,7.60
2022-11-30T07:54:10.291Z,7.60
2022-11-30T07:56:37.061Z,7.60
2022-11-30T07:59:04.131Z,7.60
2022-11-30T08:01:32.805Z,7.60
2022-11-30T08:04:00.031Z,7.60
2022-11-30T08:06:29.625Z,7.70
2022-11-30T08:09:01.800Z,7.70
2022-11-30T08:11:31.013Z,7.70
2022-11-30T08:13:57.715Z,7.80
2022-11-30T08:16:26.782Z,7.80
2022-11-30T08:18:56.089Z,7.90
2022-11-30T08:21:23.061Z,8.00
2022-11-30T08:23:52.057Z,8.00
2022-11-30T08:26:24.275Z,8.00
2022-11-30T08:28:52.556Z,8.10
2022-11-30T08:31:22.082Z,8.10
2022-11-30T08:33:49.816Z,8.20
2022-11-30T08:36:19.232Z,8.20
2022-11-30T08:38:46.706Z,8.30
2022-11-30T08:41:16.068Z,8.40
2022-11-30T08:43:43.243Z,8.60
2022-11-30T08:46:42.590Z,8.60
2022-11-30T08:49:19.956Z,8.70
2022-11-30T08:54:32.670Z,8.60
2022-11-30T08:56:59.360Z,8.60
2022-11-30T08:59:26.240Z,8.60
2022-11-30T09:01:53.129Z,8.60
2022-11-30T09:04:19.817Z,8.60
2022-11-30T09:06:46.573Z,8.70
2022-11-30T09:09:13.553Z,8.60
2022-11-30T09:11:40.393Z,8.70
2022-11-30T09:14:09.023Z,8.70
2022-11-30T09:16:36.286Z,8.70
2022-11-30T09:19:03.733Z,8.70
2022-11-30T09:21:31.942Z,8.80
2022-11-30T09:23:58.890Z,8.90
2022-11-30T09:26:26.008Z,9.00
2022-11-30T09:28:54.010Z,9.20
2022-11-30T09:31:23.637Z,9.40
2022-11-30T09:33:51.733Z,9.20
2022-11-30T09:36:21.441Z,9.20
2022-11-30T09:38:49.167Z,9.10
2022-11-30T09:41:35.740Z,9.20
2022-11-30T09:44:29.634Z,9.10
2022-11-30T09:47:08.478Z,9.10
2022-11-30T09:49:45.489Z,9.10
2022-11-30T09:52:20.761Z,9.00
2022-11-30T09:54:48.302Z,9.00
2022-11-30T09:57:37.677Z,8.90
2022-11-30T10:00:12.437Z,8.90
2022-11-30T10:02:42.805Z,8.90
2022-11-30T10:05:21.993Z,8.90
2022-11-30T10:08:00.860Z,8.90
2022-11-30T10:11:13.930Z,8.90
2022-11-30T10:14:15.656Z,9.10
2022-11-30T10:17:06.244Z,9.10
2022-11-30T10:19:49.907Z,9.00
2022-11-30T10:22:55.859Z,9.00
2022-11-30T10:25:25.546Z,9.00
2022-11-30T10:27:54.773Z,9.00
2022-11-30T10:30:29.824Z,8.80
2022-11-30T10:33:05.348Z,8.90
2022-11-30T10:35:42.122Z,8.90
2022-11-30T10:38:23.373Z,9.00
2022-11-30T10:40:58.010Z,9.00
2022-11-30T10:43:39.460Z,9.10
2022-11-30T10:46:06.300Z,9.20
2022-11-30T10:48:40.661Z,9.30
2022-11-30T10:51:10.702Z,9.40
2022-11-30T10:53:37.613Z,9.40
2022-11-30T10:56:12.684Z,9.50
2022-11-30T10:58:48.316Z,9.50
2022-11-30T11:01:37.794Z,9.50
2022-11-30T11:04:16.779Z,9.60
2022-11-30T11:06:55.027Z,9.50
2022-11-30T11:09:33.813Z,9.40
2022-11-30T11:12:06.143Z,9.30
2022-11-30T11:14:37.909Z,9.30
2022-11-30T11:17:23.067Z,9.40
2022-11-30T11:19:51.798Z,9.50
2022-11-30T11:22:27.238Z,9.60
2022-11-30T11:25:11.072Z,9.70
2022-11-30T11:27:44.228Z,9.80
2022-11-30T11:30:30.118Z,10.00
2022-11-30T11:33:01.941Z,10.10
2022-11-30T11:35:42.189Z,10.10
2022-11-30T11:38:29.448Z,10.10
2022-11-30T11:40:57.986Z,10.20
2022-11-30T11:43:27.288Z,10.20
2022-11-30T11:45:56.724Z,10.30
2022-11-30T11:48:48.628Z,10.40
2022-11-30T11:51:29.890Z,10.50
2022-11-30T11:54:00.432Z,10.50
2022-11-30T11:56:28.337Z,10.50
2022-11-30T11:59:10.469Z,10.30
2022-11-30T12:01:59.006Z,10.30
2022-11-30T12:04:56.505Z,10.20
2022-11-30T12:07:39.140Z,10.10
2022-11-30T12:10:55.409Z,10.10
2022-11-30T12:13:26.011Z,10.00
2022-11-30T12:16:14.992Z,10.00
2022-11-30T12:18:57.854Z,10.10
2022-11-30T12:22:01.977Z,10.20
2022-11-30T12:24:47.932Z,10.10
2022-11-30T12:27:54.009Z,10.00
2022-11-30T12:30:36.133Z,10.00
2022-11-30T12:33:11.037Z,9.80
2022-11-30T12:35:55.761Z,9.80
2022-11-30T12:38:47.143Z,9.70
2022-11-30T12:41:30.590Z,9.50
2022-11-30T12:44:28.845Z,9.40
2022-11-30T12:47:06.822Z,9.50
2022-11-30T12:49:56.431Z,9.70
2022-11-30T12:52:48.296Z,10.00
2022-11-30T12:55:28.675Z,10.40
2022-11-30T12:58:20.974Z,10.80
2022-11-30T13:01:05.857Z,11.00
2022-11-30T13:03:48.230Z,11.10
2022-11-30T13:06:22.910Z,11.10
2022-11-30T13:09:02.356Z,11.20
2022-11-30T13:11:40.943Z,11.00
2022-11-30T13:14:15.116Z,10.80
2022-11-30T13:16:43.485Z,10.60
2022-11-30T13:19:37.792Z,10.40
2022-11-30T13:22:12.305Z,10.20
2022-11-30T13:24:50.600Z,10.30
2022-11-30T13:27:24.313Z,10.40
2022-11-30T13:30:18.466Z,10.60
2022-11-30T13:33:00.554Z,10.70
2022-11-30T13:35:30.377Z,10.70
2022-11-30T13:38:37.797Z,10.70
2022-11-30T13:41:07.521Z,10.70
2022-11-30T13:43:54.588Z,10.70
2022-11-30T13:46:23.747Z,10.50
2022-11-30T13:49:16.343Z,10.40
2022-11-30T13:51:43.317Z,10.40
2022-11-30T13:54:38.521Z,10.30
2022-11-30T13:57:18.997Z,10.20
2022-11-30T13:59:53.809Z,10.20
2022-11-30T14:02:41.763Z,10.20
2022-11-30T14:05:20.095Z,10.20
2022-11-30T14:08:07.081Z,10.20
2022-11-30T14:10:38.265Z,10.20
2022-11-30T14:13:24.916Z,10.20
2022-11-30T14:15:55.306Z,10.20
2022-11-30T14:18:27.416Z,10.10
2022-11-30T14:20:57.829Z,10.10
2022-11-30T14:23:36.012Z,10.00
2022-11-30T14:26:11.140Z,10.00
2022-11-30T14:28:52.469Z,10.00
2022-11-30T14:31:24.365Z,10.00
2022-11-30T14:33:56.378Z,10.00
2022-11-30T14:36:28.330Z,10.00
2022-11-30T14:38:55.198Z,9.90
2022-11-30T14:41:29.942Z,9.90
2022-11-30T14:44:13.107Z,9.90
2022-11-30T14:46:41.524Z,9.80
2022-11-30T14:49:18.668Z,9.80
2022-11-30T14:51:56.242Z,9.80
2022-11-30T14:54:30.045Z,9.80
2022-11-30T14:57:05.537Z,9.80
2022-11-30T14:59:47.447Z,9.70
2022-11-30T15:02:22.569Z,9.70
2022-11-30T15:04:52.128Z,9.60
2022-11-30T15:07:19.432Z,9.60
2022-11-30T15:09:49.767Z,9.50
2022-11-30T15:12:20.211Z,9.40
2022-11-30T15:15:21.139Z,9.40
2022-11-30T15:17:57.509Z,9.40
2022-11-30T15:20:28.008Z,9.40
2022-11-30T15:22:57.611Z,9.40
2022-11-30T15:25:29.913Z,9.40
2022-11-30T15:27:58.429Z,9.30
2022-11-30T15:30:25.402Z,9.30
2022-11-30T15:32:52.787Z,9.30
2022-11-30T15:35:34.339Z,9.30
2022-11-30T15:38:18.492Z,9.20
2022-11-30T15:40:51.827Z,9.30
2022-11-30T15:43:25.508Z,9.20
2022-11-30T15:45:55.768Z,9.20
2022-11-30T15:48:39.688Z,9.20
2022-11-30T15:51:16.043Z,9.20
2022-11-30T15:53:51.122Z,9.10
2022-11-30T15:56:26.774Z,9.20
2022-11-30T15:59:07.332Z,9.10
2022-11-30T16:02:02.011Z,9.10
2022-11-30T16:04:58.488Z,9.10
2022-11-30T16:07:37.035Z,9.10
2022-11-30T16:10:06.073Z,9.10
2022-11-30T16:12:33.224Z,9.10
2022-11-30T16:14:59.987Z,9.10
2022-11-30T16:17:28.106Z,9.00
2022-11-30T16:19:54.889Z,9.00
2022-11-30T16:22:21.707Z,9.00
2022-11-30T16:24:48.408Z,9.10
2022-11-30T16:27:17.948Z,9.00
2022-11-30T16:29:50.490Z,9.00
2022-11-30T16:32:19.275Z,9.00
2022-11-30T16:34:47.938Z,9.10
2022-11-30T16:37:18.112Z,9.00
2022-11-30T16:39:45.119Z,9.10
2022-11-30T16:42:12.845Z,9.00
2022-11-30T16:44:39.730Z,9.00
2022-11-30T16:47:06.476Z,9.00
2022-11-30T16:49:37.077Z,9.00
2022-11-30T16:52:04.434Z,9.00
2022-11-30T16:54:31.618Z,9.00
2022-11-30T16:56:58.610Z,9.20
2022-11-30T16:59:26.824Z,9.00
2022-11-30T17:01:54.189Z,8.90
2022-11-30T17:04:23.904Z,8.90
2022-11-30T17:06:54.696Z,8.90
2022-11-30T17:09:24.342Z,8.90
2022-11-30T17:11:51.485Z,8.80
2022-11-30T17:14:20.209Z,8.90
2022-11-30T17:16:47.362Z,8.80
2022-11-30T17:19:14.236Z,8.80
2022-11-30T17:21:42.907Z,8.80
2022-11-30T17:24:10.002Z,8.80
2022-11-30T17:26:36.813Z,8.80
2022-11-30T17:29:04.186Z,8.70
2022-11-30T17:31:31.057Z,8.70
2022-11-30T17:33:58.030Z,8.60
2022-11-30T17:36:26.728Z,8.60
2022-11-30T17:38:53.601Z,8.70
2022-11-30T17:41:21.890Z,8.50
2022-11-30T17:43:49.423Z,8.50
2022-11-30T17:46:18.217Z,8.40
2022-11-30T17:48:45.604Z,8.40
2022-11-30T17:51:13.467Z,8.40
2022-11-30T17:53:46.871Z,8.30
2022-11-30T17:56:16.120Z,8.30
2022-11-30T17:58:44.658Z,8.30
2022-11-30T18:01:29.596Z,8.30
2022-11-30T18:03:56.693Z,8.30
2022-11-30T18:06:23.781Z,8.30
2022-11-30T18:08:53.818Z,8.20
2022-11-30T18:11:26.041Z,8.20
2022-11-30T18:13:55.316Z,8.10
2022-11-30T18:16:32.351Z,8.00
2022-11-30T18:18:59.720Z,7.90
2022-11-30T18:21:29.541Z,7.90
2022-11-30T18:23:57.517Z,7.80
2022-11-30T18:26:25.821Z,7.80
2022-11-30T18:29:02.300Z,7.90
2022-11-30T18:31:30.431Z,8.10
2022-11-30T18:34:02.214Z,8.00
2022-11-30T18:36:30.816Z,8.00
2022-11-30T18:38:57.750Z,8.00
2022-11-30T18:41:26.154Z,8.00
2022-11-30T18:43:53.727Z,7.80
2022-11-30T18:46:20.682Z,7.80
2022-11-30T18:48:50.987Z,7.70
2022-11-30T18:51:23.350Z,7.60
2022-11-30T18:53:57.395Z,7.60
2022-11-30T18:56:26.047Z,7.50
2022-11-30T18:58:57.859Z,7.40
2022-11-30T19:01:25.469Z,7.40
2022-11-30T19:03:54.197Z,7.40
2022-11-30T19:06:21.173Z,7.40
2022-11-30T19:08:48.800Z,7.40
2022-11-30T19:11:16.844Z,7.50
2022-11-30T19:13:44.541Z,7.40
2022-11-30T19:16:14.470Z,7.40
2022-11-30T19:18:41.452Z,7.40
2022-11-30T19:21:11.866Z,7.30
2022-11-30T19:23:39.342Z,7.20
2022-11-30T19:26:07.919Z,7.20
2022-11-30T19:28:36.305Z,7.10
2022-11-30T19:31:11.685Z,7.10
2022-11-30T19:33:40.799Z,7.00
2022-11-30T19:36:11.620Z,6.90
2022-11-30T19:38:38.411Z,6.90
2022-11-30T19:41:07.003Z,6.90
2022-11-30T19:43:33.957Z,6.80
2022-11-30T19:46:08.395Z,6.80
2022-11-30T19:48:35.968Z,6.80
2022-11-30T19:51:10.959Z,6.70
2022-11-30T19:53:43.584Z,6.70
2022-11-30T19:56:14.726Z,6.70
2022-11-30T19:58:46.240Z,6.60
2022-11-30T20:01:15.029Z,6.60
2022-11-30T20:03:44.027Z,6.80
2022-11-30T20:06:11.583Z,6.70
2022-11-30T20:08:38.977Z,6.80
2022-11-30T20:11:09.520Z,6.60
2022-11-30T20:13:40.947Z,6.60
2022-11-30T20:16:10.534Z,6.60
2022-11-30T20:18:42.716Z,6.50
2022-11-30T20:21:17.877Z,6.50
2022-11-30T20:23:47.086Z,6.40
2022-11-30T20:26:21.063Z,6.50
2022-11-30T20:28:50.049Z,6.60
2022-11-30T20:31:18.756Z,6.60
2022-11-30T20:33:46.099Z,6.50
2022-11-30T20:36:15.546Z,6.40
2022-11-30T20:38:43.175Z,6.70
2022-11-30T20:41:13.256Z,6.40
2022-11-30T20:43:41.044Z,6.90
2022-11-30T20:46:22.829Z,6.30
2022-11-30T20:48:51.008Z,6.30
2022-11-30T20:51:30.314Z,6.30
2022-11-30T20:54:01.994Z,6.40
2022-11-30T20:56:28.925Z,6.30
2022-11-30T20:58:56.208Z,6.30
2022-11-30T21:01:24.276Z,6.30
2022-11-30T21:03:51.119Z,6.30
2022-11-30T21:06:18.078Z,6.30
2022-11-30T21:08:45.055Z,6.20
2022-11-30T21:11:17.438Z,6.30
2022-11-30T21:13:46.486Z,6.30
2022-11-30T21:16:15.159Z,6.30
2022-11-30T21:18:44.271Z,6.20
2022-11-30T21:21:20.226Z,6.50
2022-11-30T21:23:47.681Z,6.40
2022-11-30T21:26:22.388Z,6.20
2022-11-30T21:28:53.071Z,6.50
2022-11-30T21:31:20.766Z,6.60
2022-11-30T21:33:52.839Z,6.70
2022-11-30T21:36:23.798Z,6.70
2022-11-30T21:38:59.536Z,6.70
2022-11-30T21:41:31.245Z,6.50
2022-11-30T21:43:58.077Z,6.70
2022-11-30T21:46:25.198Z,6.70
2022-11-30T21:48:52.592Z,6.80
2022-11-30T21:51:22.246Z,6.80
2022-11-30T21:53:51.449Z,7.00
2022-11-30T21:56:22.999Z,7.10
2022-11-30T21:58:50.947Z,7.00
2022-11-30T22:01:27.565Z,6.90
2022-11-30T22:03:56.042Z,6.90
2022-11-30T22:06:23.860Z,6.80
2022-11-30T22:08:50.780Z,6.70
2022-11-30T22:11:19.841Z,6.60
2022-11-30T22:13:54.556Z,6.50
2022-11-30T22:16:23.852Z,6.40
2022-11-30T22:18:58.162Z,6.30
2022-11-30T22:21:27.760Z,6.30
2022-11-30T22:23:59.259Z,6.30
2022-11-30T22:26:28.376Z,6.30
2022-11-30T22:28:57.919Z,6.20
2022-11-30T22:31:34.180Z,6.10
2022-11-30T22:34:01.105Z,6.00
2022-11-30T22:36:30.140Z,5.90
2022-11-30T22:39:07.109Z,5.90
2022-11-30T22:41:33.977Z,5.80
2022-11-30T22:44:01.182Z,5.70
2022-11-30T22:46:30.328Z,5.70
2022-11-30T22:49:02.843Z,5.70
2022-11-30T22:51:30.825Z,5.70
2022-11-30T22:53:58.571Z,5.70
2022-11-30T22:56:28.554Z,5.70
2022-11-30T22:58:58.662Z,5.60
2022-11-30T23:01:28.903Z,5.60
2022-11-30T23:04:01.798Z,5.60
2022-11-30T23:06:28.572Z,5.60
2022-11-30T23:08:55.378Z,5.60
2022-11-30T23:11:24.797Z,5.60
2022-11-30T23:13:52.310Z,5.60
2022-11-30T23:16:20.371Z,5.50
2022-11-30T23:18:55.483Z,5.50
2022-11-30T23:21:25.133Z,5.50
2022-11-30T23:23:52.793Z,5.50
2022-11-30T23:26:25.378Z,5.40
2022-11-30T23:28:53.498Z,5.40
2022-11-30T23:31:33.853Z,5.40
2022-11-30T23:34:04.749Z,5.40
2022-11-30T23:36:32.217Z,5.40
2022-11-30T23:39:01.275Z,5.30
2022-11-30T23:41:28.358Z,5.40
2022-11-30T23:43:55.555Z,5.30
2022-11-30T23:46:22.534Z,5.30
2022-11-30T23:48:49.545Z,5.30
2022-11-30T23:51:17.884Z,5.30
2022-11-30T23:53:44.696Z,5.20
2022-11-30T23:56:15.071Z,5.20
2022-11-30T23:58:41.812Z,5.20
